createdAt,value
2022-08-12T00:00:34.905Z,83.50
2022-08-12T00:03:23.698Z,84.04
2022-08-12T00:06:10.188Z,84.27
2022-08-12T00:08:58.419Z,82.83
2022-08-12T00:11:45.812Z,82.62
2022-08-12T00:14:32.668Z,82.81
2022-08-12T00:17:18.500Z,83.55
2022-08-12T00:20:05.200Z,84.54
2022-08-12T00:22:59.398Z,84.61
2022-08-12T00:26:21.573Z,86.81
2022-08-12T00:29:09.085Z,87.51
2022-08-12T00:31:55.177Z,88.98
2022-08-12T00:34:41.490Z,90.46
2022-08-12T00:37:27.724Z,90.96
2022-08-12T00:40:15.063Z,92.02
2022-08-12T00:42:43.132Z,92.30
2022-08-12T00:45:11.174Z,92.01
2022-08-12T00:47:39.199Z,92.78
2022-08-12T00:50:07.611Z,93.15
2022-08-12T00:52:36.220Z,94.38
2022-08-12T00:55:06.067Z,94.32
2022-08-12T00:57:37.057Z,95.18
2022-08-12T01:00:09.943Z,95.95
2022-08-12T01:02:40.378Z,95.69
2022-08-12T01:05:34.827Z,96.31
2022-08-12T01:08:20.868Z,95.13
2022-08-12T01:11:08.267Z,95.79
2022-08-12T01:13:39.971Z,96.20
2022-08-12T01:16:09.823Z,96.87
2022-08-12T01:18:40.600Z,97.93
2022-08-12T01:21:19.426Z,98.27
2022-08-12T01:24:30.142Z,99.79
2022-08-12T01:27:01.404Z,99.75
2022-08-12T01:29:32.622Z,99.95
2022-08-12T01:32:05.572Z,99.48
2022-08-12T01:34:37.713Z,99.70
2022-08-12T01:37:09.433Z,99.44
2022-08-12T01:40:36.001Z,99.52
2022-08-12T01:42:52.126Z,99.53
2022-08-12T01:45:24.831Z,99.12
2022-08-12T01:48:17.078Z,98.86
2022-08-12T01:51:09.867Z,99.43
2022-08-12T01:54:05.835Z,100.00
2022-08-12T01:56:39.754Z,99.69
2022-08-12T01:59:28.597Z,99.41
2022-08-12T02:01:58.942Z,99.95
2022-08-12T02:05:01.701Z,99.66
2022-08-12T02:08:05.015Z,99.95
2022-08-12T02:10:55.599Z,100.00
2022-08-12T02:14:01.677Z,100.00
2022-08-12T02:16:46.505Z,100.00
2022-08-12T02:19:32.424Z,100.00
2022-08-12T02:22:28.320Z,100.00
2022-08-12T02:25:08.488Z,100.00
2022-08-12T02:27:41.582Z,100.00
2022-08-12T02:30:15.561Z,100.00
2022-08-12T02:32:44.841Z,100.00
2022-08-12T02:35:15.078Z,100.00
2022-08-12T02:37:43.858Z,100.00
2022-08-12T02:40:13.627Z,100.00
2022-08-12T02:42:51.216Z,100.00
2022-08-12T02:45:25.991Z,100.00
2022-08-12T02:48:01.394Z,100.00
2022-08-12T02:50:31.728Z,100.00
2022-08-12T02:52:59.636Z,100.00
2022-08-12T02:55:34.959Z,100.00
2022-08-12T02:58:12.346Z,100.00
2022-08-12T03:00:43.673Z,100.00
2022-08-12T03:03:13.259Z,100.00
2022-08-12T03:05:58.087Z,100.00
2022-08-12T03:08:35.335Z,100.00
2022-08-12T03:11:20.755Z,100.00
2022-08-12T03:13:58.135Z,100.00
2022-08-12T03:16:28.147Z,100.00
2022-08-12T03:18:55.342Z,100.00
2022-08-12T03:21:55.297Z,100.00
2022-08-12T03:24:17.584Z,100.00
2022-08-12T03:26:47.507Z,100.00
2022-08-12T03:29:16.559Z,100.00
2022-08-12T03:31:44.207Z,100.00
2022-08-12T03:34:14.461Z,100.00
2022-08-12T03:36:42.787Z,100.00
2022-08-12T03:39:14.409Z,100.00
2022-08-12T03:41:52.586Z,100.00
2022-08-12T03:44:50.043Z,100.00
2022-08-12T03:47:44.073Z,100.00
2022-08-12T03:50:31.037Z,100.00
2022-08-12T03:53:16.581Z,100.00
2022-08-12T03:56:02.352Z,100.00
2022-08-12T03:58:48.592Z,100.00
2022-08-12T04:01:16.240Z,100.00
2022-08-12T04:03:53.354Z,100.00
2022-08-12T04:06:34.295Z,100.00
2022-08-12T04:09:16.446Z,100.00
2022-08-12T04:12:04.388Z,100.00
2022-08-12T04:14:32.382Z,100.00
2022-08-12T04:17:01.005Z,100.00
2022-08-12T04:19:28.667Z,100.00
2022-08-12T04:22:02.224Z,100.00
2022-08-12T04:24:36.721Z,100.00
2022-08-12T04:27:10.734Z,100.00
2022-08-12T04:30:16.758Z,100.00
2022-08-12T04:32:28.064Z,100.00
2022-08-12T04:34:55.847Z,100.00
2022-08-12T04:37:23.386Z,100.00
2022-08-12T04:39:54.207Z,100.00
2022-08-12T04:42:22.184Z,100.00
2022-08-12T04:44:49.441Z,100.00
2022-08-12T04:47:17.151Z,100.00
2022-08-12T04:49:46.180Z,100.00
2022-08-12T04:52:13.499Z,100.00
2022-08-12T04:54:44.188Z,100.00
2022-08-12T04:57:11.696Z,100.00
2022-08-12T04:59:46.829Z,100.00
2022-08-12T05:02:20.467Z,100.00
2022-08-12T05:04:51.839Z,100.00
2022-08-12T05:07:20.304Z,100.00
2022-08-12T05:09:59.003Z,100.00
2022-08-12T05:12:37.919Z,100.00
2022-08-12T05:15:16.747Z,100.00
2022-08-12T05:17:46.453Z,100.00
2022-08-12T05:20:17.402Z,100.00
2022-08-12T05:22:45.370Z,99.57
2022-08-12T05:25:13.905Z,98.55
2022-08-12T05:27:40.899Z,97.00
2022-08-12T05:30:33.542Z,96.12
2022-08-12T05:33:05.809Z,95.48
2022-08-12T05:35:39.868Z,93.83
2022-08-12T05:38:26.165Z,93.01
2022-08-12T05:40:53.267Z,91.88
2022-08-12T05:43:20.536Z,90.37
2022-08-12T05:45:47.935Z,85.96
2022-08-12T05:48:19.099Z,86.40
2022-08-12T05:50:46.352Z,87.36
2022-08-12T05:53:13.510Z,88.82
2022-08-12T05:55:41.210Z,85.03
2022-08-12T05:58:08.225Z,84.69
2022-08-12T06:00:36.322Z,84.20
2022-08-12T06:03:04.866Z,85.20
2022-08-12T06:05:43.272Z,86.18
2022-08-12T06:08:22.256Z,85.06
2022-08-12T06:10:52.048Z,84.37
2022-08-12T06:13:28.274Z,83.54
2022-08-12T06:16:09.939Z,82.15
2022-08-12T06:18:40.331Z,80.14
2022-08-12T06:21:12.605Z,80.39
2022-08-12T06:23:42.722Z,79.61
2022-08-12T06:26:17.002Z,78.75
2022-08-12T06:28:46.217Z,75.75
2022-08-12T06:31:32.133Z,75.50
2022-08-12T06:35:23.460Z,74.55
2022-08-12T06:36:48.038Z,71.89
2022-08-12T06:39:16.810Z,65.23
2022-08-12T06:42:42.105Z,58.85
2022-08-12T06:44:50.648Z,52.67
2022-08-12T06:47:19.642Z,48.79
2022-08-12T06:49:48.643Z,44.85
2022-08-12T06:52:17.400Z,43.74
2022-08-12T06:54:46.982Z,41.49
2022-08-12T06:58:01.890Z,40.73
2022-08-12T07:00:01.816Z,39.26
2022-08-12T07:02:30.679Z,37.92
2022-08-12T07:04:59.480Z,36.68
2022-08-12T07:07:29.048Z,36.63
2022-08-12T07:10:05.680Z,35.59
2022-08-12T07:12:34.482Z,35.29
2022-08-12T07:15:03.680Z,33.87
2022-08-12T07:17:36.706Z,35.07
2022-08-12T07:20:09.929Z,33.48
2022-08-12T07:22:39.941Z,33.42
2022-08-12T07:25:37.907Z,33.02
2022-08-12T07:28:16.061Z,32.91
2022-08-12T07:30:45.112Z,32.71
2022-08-12T07:33:13.595Z,34.62
2022-08-12T07:35:48.419Z,31.97
2022-08-12T07:38:30.706Z,32.20
2022-08-12T07:41:02.758Z,31.04
2022-08-12T07:43:31.431Z,31.82
2022-08-12T07:46:02.918Z,31.30
2022-08-12T07:48:36.940Z,31.45
2022-08-12T07:51:04.245Z,31.27
2022-08-12T07:53:31.466Z,30.68
2022-08-12T07:56:00.694Z,30.97
2022-08-12T07:58:27.965Z,30.39
2022-08-12T08:00:57.793Z,31.77
2022-08-12T08:03:25.952Z,31.13
2022-08-12T08:05:54.050Z,31.08
2022-08-12T08:08:28.770Z,31.20
2022-08-12T08:11:18.466Z,31.57
2022-08-12T08:13:47.241Z,31.09
2022-08-12T08:16:15.359Z,31.36
2022-08-12T08:18:43.714Z,31.18
2022-08-12T08:21:11.197Z,30.69
2022-08-12T08:24:01.995Z,31.22
2022-08-12T08:26:34.474Z,27.56
2022-08-12T08:29:05.144Z,27.41
2022-08-12T08:31:32.180Z,27.21
2022-08-12T08:34:27.475Z,25.93
2022-08-12T08:36:47.254Z,28.46
2022-08-12T08:39:21.730Z,28.09
2022-08-12T08:42:13.895Z,27.84
2022-08-12T08:44:47.205Z,28.37
2022-08-12T08:47:22.032Z,29.24
2022-08-12T08:49:49.050Z,27.07
2022-08-12T08:52:39.731Z,26.17
2022-08-12T08:55:04.398Z,26.03
2022-08-12T08:57:43.459Z,26.20
2022-08-12T09:00:16.846Z,25.54
2022-08-12T09:02:49.481Z,26.28
2022-08-12T09:05:43.230Z,26.64
2022-08-12T09:08:23.163Z,27.41
2022-08-12T09:11:00.115Z,27.84
2022-08-12T09:14:10.404Z,26.00
2022-08-12T09:16:20.856Z,25.97
2022-08-12T09:18:52.196Z,28.77
2022-08-12T09:21:20.431Z,27.88
2022-08-12T09:23:59.322Z,26.20
2022-08-12T09:26:31.306Z,25.48
2022-08-12T09:29:12.127Z,26.40
2022-08-12T09:32:03.728Z,26.36
2022-08-12T09:34:33.875Z,26.07
2022-08-12T09:37:19.966Z,25.85
2022-08-12T09:40:03.304Z,25.23
2022-08-12T09:43:16.039Z,25.98
2022-08-12T09:46:20.663Z,25.75
2022-08-12T09:48:36.295Z,25.49
2022-08-12T09:51:16.708Z,25.37
2022-08-12T09:54:05.456Z,25.57
2022-08-12T09:57:02.888Z,25.16
2022-08-12T10:00:14.911Z,26.76
2022-08-12T10:02:42.675Z,26.69
2022-08-12T10:05:13.165Z,25.87
2022-08-12T10:07:40.980Z,25.65
2022-08-12T10:10:22.220Z,26.71
2022-08-12T10:13:13.486Z,25.83
2022-08-12T10:16:02.122Z,26.77
2022-08-12T10:18:35.305Z,27.25
2022-08-12T10:21:07.828Z,25.32
2022-08-12T10:23:39.827Z,24.42
2022-08-12T10:26:38.058Z,26.14
2022-08-12T10:30:40.711Z,25.55
2022-08-12T10:33:02.249Z,25.59
2022-08-12T10:35:14.056Z,25.07
2022-08-12T10:38:37.371Z,25.50
2022-08-12T10:40:34.292Z,25.70
2022-08-12T10:43:25.962Z,25.23
2022-08-12T10:45:58.330Z,26.17
2022-08-12T10:48:34.110Z,27.91
2022-08-12T10:52:04.112Z,25.37
2022-08-12T10:54:00.714Z,26.03
2022-08-12T10:56:34.954Z,26.36
2022-08-12T10:59:05.390Z,27.04
2022-08-12T11:04:19.741Z,26.69
2022-08-12T11:04:39.441Z,27.33
2022-08-12T11:08:37.037Z,27.64
2022-08-12T11:10:01.831Z,28.89
2022-08-12T11:12:54.932Z,28.15
2022-08-12T11:15:32.926Z,29.13
2022-08-12T11:18:17.829Z,29.85
2022-08-12T11:20:48.050Z,31.21
2022-08-12T11:23:33.989Z,30.06
2022-08-12T11:26:06.289Z,31.31
2022-08-12T11:28:37.110Z,32.14
2022-08-12T11:31:12.200Z,31.77
2022-08-12T11:34:06.719Z,32.23
2022-08-12T11:36:33.407Z,31.31
2022-08-12T11:39:06.812Z,31.66
2022-08-12T11:41:34.843Z,31.32
2022-08-12T11:44:33.345Z,31.37
2022-08-12T11:46:54.169Z,31.60
2022-08-12T11:49:31.602Z,30.94
2022-08-12T11:52:04.358Z,30.02
2022-08-12T11:54:50.821Z,29.49
2022-08-12T11:58:07.195Z,29.13
2022-08-12T12:02:55.081Z,29.93
2022-08-12T12:05:22.084Z,29.63
2022-08-12T12:08:37.560Z,30.38
2022-08-12T12:10:43.098Z,29.76
2022-08-12T12:13:11.588Z,29.26
2022-08-12T12:15:50.233Z,29.74
2022-08-12T12:18:30.910Z,29.38
2022-08-12T12:21:00.239Z,29.06
2022-08-12T12:23:29.609Z,29.96
2022-08-12T12:26:06.869Z,29.27
2022-08-12T12:28:39.351Z,29.55
2022-08-12T12:31:14.807Z,29.12
2022-08-12T12:33:58.309Z,29.09
2022-08-12T12:36:30.295Z,30.78
2022-08-12T12:39:00.208Z,29.88
2022-08-12T12:42:41.644Z,29.73
2022-08-12T12:44:30.325Z,29.60
2022-08-12T12:47:03.133Z,29.99
2022-08-12T12:49:30.356Z,29.28
2022-08-12T12:52:18.614Z,30.75
2022-08-12T12:54:53.058Z,31.05
2022-08-12T12:57:35.876Z,29.86
2022-08-12T13:00:20.574Z,29.93
2022-08-12T13:02:55.638Z,29.24
2022-08-12T13:05:28.028Z,29.87
2022-08-12T13:08:01.252Z,29.28
2022-08-12T13:10:36.572Z,30.72
2022-08-12T13:14:06.990Z,29.90
2022-08-12T13:15:53.905Z,28.57
2022-08-12T13:18:33.534Z,28.90
2022-08-12T13:21:02.437Z,28.77
2022-08-12T13:23:36.570Z,29.43
2022-08-12T13:26:14.321Z,28.80
2022-08-12T13:28:55.859Z,29.47
2022-08-12T13:31:25.577Z,29.75
2022-08-12T13:34:33.696Z,29.31
2022-08-12T13:36:42.264Z,28.65
2022-08-12T13:39:09.940Z,27.21
2022-08-12T13:41:37.793Z,28.16
2022-08-12T13:44:10.560Z,27.42
2022-08-12T13:46:38.868Z,26.82
2022-08-12T13:49:07.814Z,27.41
2022-08-12T13:51:41.335Z,28.10
2022-08-12T13:54:13.897Z,28.34
2022-08-12T13:56:50.056Z,26.98
2022-08-12T13:59:24.495Z,27.85
2022-08-12T14:01:56.832Z,28.34
2022-08-12T14:04:24.377Z,28.20
2022-08-12T14:06:52.043Z,29.26
2022-08-12T14:09:20.814Z,29.90
2022-08-12T14:11:58.406Z,28.62
2022-08-12T14:14:31.151Z,29.02
2022-08-12T14:17:05.474Z,28.63
2022-08-12T14:19:39.270Z,28.75
2022-08-12T14:22:20.214Z,28.29
2022-08-12T14:24:47.697Z,28.93
2022-08-12T14:28:02.447Z,29.33
2022-08-12T14:30:15.227Z,30.17
2022-08-12T14:32:45.320Z,29.27
2022-08-12T14:35:12.603Z,29.02
2022-08-12T14:37:57.436Z,29.42
2022-08-12T14:40:31.158Z,30.16
2022-08-12T14:42:59.008Z,30.33
2022-08-12T14:45:44.549Z,30.61
2022-08-12T14:48:24.161Z,31.24
2022-08-12T14:51:09.568Z,31.50
2022-08-12T14:56:59.387Z,30.97
2022-08-12T14:59:56.267Z,30.54
2022-08-12T15:02:25.968Z,30.50
2022-08-12T15:05:03.609Z,30.36
2022-08-12T15:07:50.303Z,29.89
2022-08-12T15:10:24.944Z,30.62
2022-08-12T15:12:59.171Z,30.92
2022-08-12T15:15:26.372Z,31.12
2022-08-12T15:18:02.064Z,30.65
2022-08-12T15:20:32.993Z,30.58
2022-08-12T15:23:17.977Z,30.54
2022-08-12T15:26:02.749Z,30.45
2022-08-12T15:28:35.390Z,30.83
2022-08-12T15:31:09.581Z,30.56
2022-08-12T15:33:57.105Z,31.13
2022-08-12T15:36:50.244Z,31.04
2022-08-12T15:39:16.962Z,31.66
2022-08-12T15:41:49.374Z,31.34
2022-08-12T15:44:37.710Z,31.51
2022-08-12T15:47:06.291Z,31.83
2022-08-12T15:49:43.425Z,31.64
2022-08-12T15:52:27.644Z,31.69
2022-08-12T15:54:58.490Z,31.03
2022-08-12T15:57:27.583Z,31.71
2022-08-12T16:00:06.479Z,31.32
2022-08-12T16:02:49.491Z,30.95
2022-08-12T16:06:11.145Z,31.55
2022-08-12T16:08:17.159Z,31.54
2022-08-12T16:10:47.784Z,31.60
2022-08-12T16:13:32.751Z,31.70
2022-08-12T16:16:22.883Z,31.72
2022-08-12T16:19:01.996Z,30.68
2022-08-12T16:21:51.147Z,31.17
2022-08-12T16:24:23.324Z,32.07
2022-08-12T16:26:54.041Z,31.70
2022-08-12T16:29:38.732Z,31.52
2022-08-12T16:32:24.520Z,32.24
2022-08-12T16:35:00.790Z,31.55
2022-08-12T16:38:25.817Z,31.23
2022-08-12T16:40:20.807Z,31.64
2022-08-12T16:42:54.062Z,31.65
2022-08-12T16:46:23.352Z,31.50
2022-08-12T16:48:36.167Z,32.56
2022-08-12T16:51:09.657Z,32.14
2022-08-12T16:53:44.330Z,32.47
2022-08-12T16:56:15.505Z,32.52
2022-08-12T16:58:47.350Z,32.67
2022-08-12T17:01:16.500Z,33.24
2022-08-12T17:03:59.670Z,32.97
2022-08-12T17:06:29.513Z,33.07
2022-08-12T17:09:03.009Z,33.25
2022-08-12T17:11:31.261Z,33.72
2022-08-12T17:14:01.773Z,34.12
2022-08-12T17:16:30.077Z,34.28
2022-08-12T17:19:03.081Z,34.47
2022-08-12T17:21:41.046Z,34.45
2022-08-12T17:24:21.514Z,35.06
2022-08-12T17:26:54.185Z,34.89
2022-08-12T17:29:31.991Z,35.43
2022-08-12T17:32:11.209Z,35.70
2022-08-12T17:34:57.896Z,36.02
2022-08-12T17:37:27.019Z,36.24
2022-08-12T17:40:10.829Z,36.53
2022-08-12T17:42:47.571Z,36.82
2022-08-12T17:45:19.930Z,36.34
2022-08-12T17:48:04.979Z,36.99
2022-08-12T17:50:33.552Z,37.48
2022-08-12T17:53:03.290Z,37.90
2022-08-12T17:55:43.118Z,38.16
2022-08-12T17:58:15.377Z,38.55
2022-08-12T18:00:47.541Z,38.57
2022-08-12T18:04:04.447Z,39.35
2022-08-12T18:06:08.851Z,39.90
2022-08-12T18:08:43.573Z,40.02
2022-08-12T18:12:04.809Z,40.35
2022-08-12T18:14:29.071Z,41.10
2022-08-12T18:17:00.434Z,41.53
2022-08-12T18:19:34.097Z,42.61
2022-08-12T18:22:22.129Z,43.49
2022-08-12T18:25:03.955Z,44.56
2022-08-12T18:27:47.144Z,44.81
2022-08-12T18:30:20.699Z,45.27
2022-08-12T18:33:04.985Z,45.71
2022-08-12T18:35:47.927Z,46.04
2022-08-12T18:38:25.367Z,46.89
2022-08-12T18:41:23.448Z,46.84
2022-08-12T18:44:08.153Z,47.63
2022-08-12T18:47:01.523Z,47.90
2022-08-12T18:49:39.145Z,47.80
2022-08-12T18:52:11.269Z,48.23
2022-08-12T18:54:49.277Z,48.93
2022-08-12T18:58:06.019Z,48.63
2022-08-12T19:00:21.314Z,49.03
2022-08-12T19:02:53.265Z,49.16
2022-08-12T19:05:54.525Z,48.62
2022-08-12T19:08:13.308Z,48.43
2022-08-12T19:10:42.733Z,47.82
2022-08-12T19:13:38.248Z,47.79
2022-08-12T19:16:11.289Z,47.79
2022-08-12T19:18:41.048Z,48.15
2022-08-12T19:21:16.936Z,48.55
2022-08-12T19:24:08.213Z,48.49
2022-08-12T19:26:36.688Z,48.84
2022-08-12T19:29:05.397Z,48.97
2022-08-12T19:31:56.093Z,48.45
2022-08-12T19:37:27.063Z,49.80
2022-08-12T19:40:09.841Z,49.54
2022-08-12T19:42:53.526Z,50.06
2022-08-12T19:45:22.250Z,50.23
2022-08-12T19:47:49.671Z,49.65
2022-08-12T19:50:20.220Z,49.96
2022-08-12T19:52:51.211Z,50.23
2022-08-12T19:55:22.594Z,50.93
2022-08-12T19:58:02.439Z,51.00
2022-08-12T20:00:34.691Z,51.38
2022-08-12T20:03:05.461Z,51.91
2022-08-12T20:06:05.171Z,51.36
2022-08-12T20:08:34.236Z,51.24
2022-08-12T20:12:14.316Z,51.94
2022-08-12T20:13:58.039Z,52.42
2022-08-12T20:16:51.670Z,53.34
2022-08-12T20:19:20.918Z,53.36
2022-08-12T20:21:51.001Z,53.02
2022-08-12T20:24:19.130Z,53.13
2022-08-12T20:26:48.177Z,53.22
2022-08-12T20:29:18.496Z,53.31
2022-08-12T20:31:52.887Z,53.80
2022-08-12T20:34:20.750Z,54.26
2022-08-12T20:36:48.006Z,54.24
2022-08-12T20:39:52.467Z,54.55
2022-08-12T20:42:18.788Z,54.76
2022-08-12T20:44:47.222Z,55.90
2022-08-12T20:47:19.977Z,54.76
2022-08-12T20:49:55.617Z,55.15
2022-08-12T20:52:34.005Z,55.08
2022-08-12T20:55:05.935Z,56.05
2022-08-12T20:58:02.705Z,56.65
2022-08-12T21:00:35.254Z,57.49
2022-08-12T21:03:21.583Z,57.09
2022-08-12T21:06:13.505Z,57.33
2022-08-12T21:08:45.459Z,58.07
2022-08-12T21:11:14.106Z,57.96
2022-08-12T21:13:42.270Z,58.20
2022-08-12T21:16:10.393Z,58.23
2022-08-12T21:18:38.367Z,58.80
2022-08-12T21:21:06.740Z,59.24
2022-08-12T21:23:56.594Z,59.92
2022-08-12T21:26:32.909Z,60.21
2022-08-12T21:29:04.254Z,59.09
2022-08-12T21:32:36.838Z,59.85
2022-08-12T21:34:29.183Z,59.91
2022-08-12T21:37:26.507Z,60.60
2022-08-12T21:39:56.302Z,59.48
2022-08-12T21:42:27.943Z,59.45
2022-08-12T21:45:47.693Z,60.84
2022-08-12T21:47:47.494Z,60.74
2022-08-12T21:50:20.518Z,61.04
2022-08-12T21:52:49.180Z,61.83
2022-08-12T21:55:20.334Z,62.03
2022-08-12T21:57:53.326Z,62.45
2022-08-12T22:00:31.782Z,62.04
2022-08-12T22:04:03.622Z,62.50
2022-08-12T22:06:30.942Z,63.03
2022-08-12T22:09:16.144Z,62.15
2022-08-12T22:11:56.435Z,61.70
2022-08-12T22:14:29.533Z,62.32
2022-08-12T22:16:58.363Z,62.28
2022-08-12T22:19:26.970Z,62.89
2022-08-12T22:21:56.298Z,63.32
2022-08-12T22:24:30.285Z,64.14
2022-08-12T22:27:14.347Z,63.80
2022-08-12T22:30:07.769Z,63.79
2022-08-12T22:32:50.792Z,63.84
2022-08-12T22:35:56.575Z,63.75
2022-08-12T22:38:24.294Z,64.83
2022-08-12T22:41:01.092Z,65.70
2022-08-12T22:44:00.815Z,66.13
2022-08-12T22:47:01.528Z,65.16
2022-08-12T22:49:36.743Z,64.71
2022-08-12T22:52:18.584Z,64.49
2022-08-12T22:55:02.871Z,65.05
2022-08-12T22:57:49.390Z,65.60
2022-08-12T23:00:24.631Z,66.52
2022-08-12T23:03:00.839Z,67.00
2022-08-12T23:05:36.725Z,67.79
2022-08-12T23:08:30.130Z,68.12
2022-08-12T23:11:05.877Z,69.06
2022-08-12T23:13:55.373Z,69.45
2022-08-12T23:16:31.911Z,69.90
2022-08-12T23:19:22.826Z,71.15
2022-08-12T23:22:06.278Z,72.45
2022-08-12T23:24:55.564Z,72.65
2022-08-12T23:27:52.274Z,72.49
2022-08-12T23:30:32.073Z,73.85
2022-08-12T23:33:13.581Z,73.97
2022-08-12T23:36:02.369Z,73.92
2022-08-12T23:38:34.719Z,75.53
2022-08-12T23:41:03.939Z,74.58
2022-08-12T23:43:39.822Z,74.14
2022-08-12T23:46:19.338Z,74.39
2022-08-12T23:48:51.997Z,74.12
2022-08-12T23:51:24.601Z,73.91
2022-08-12T23:53:56.272Z,74.04
2022-08-12T23:56:27.178Z,73.24
2022-08-12T23:58:58.413Z,72.91
